Time;durP1;ratioP1;P1;durP2;ratioP2;P2;SDS_P1;SDS_P2;PMS_P1;PMS_P2;Temp;Humidity;BMP_temperature;BMP_pressure;BME280_temperature;BME280_humidity;BME280_pressure;Samples;Min_cycle;Max_cycle;Signal;HPM_P1;HPM_P2
2024/01/15 00:01:56;;;;;;;0.97;0.90;;;;;;;;;;6161148;28;20406;-71
2024/01/15 00:05:01;;;;;;;0.73;0.73;;;;;;;;;;6160849;28;20292;-69
2024/01/15 00:08:05;;;;;;;2.33;1.00;;;;;;;;;;6159234;28;20301;-71
2024/01/15 00:11:09;;;;;;;1.10;1.00;;;;;;;;;;6161040;28;20561;-70
2024/01/15 00:14:14;;;;;;;1.00;1.00;;;;;;;;;;6160454;28;20292;-70
2024/01/15 00:17:18;;;;;;;1.10;1.10;;;;;;;;;;6160780;28;20317;-70
2024/01/15 00:20:23;;;;;;;1.93;1.00;;;;;;;;;;6158607;28;20303;-71
2024/01/15 00:23:31;;;;;;;1.00;1.00;;;;;;;;;;6160042;28;20460;-71
2024/01/15 00:26:35;;;;;;;0.90;0.90;;;;;;;;;;6160722;28;20288;-70
2024/01/15 00:29:39;;;;;;;1.00;1.00;;;;;;;;;;6162895;28;20291;-71
2024/01/15 00:32:42;;;;;;;1.10;1.10;;;;;;;;;;6158339;28;20284;-70
2024/01/15 00:35:48;;;;;;;1.73;0.93;;;;;;;;;;6165088;28;20309;-71
2024/01/15 00:38:52;;;;;;;0.90;0.90;;;;;;;;;;6147594;28;20292;-70
2024/01/15 00:41:56;;;;;;;0.90;0.90;;;;;;;;;;6165993;28;20300;-71
2024/01/15 00:45:00;;;;;;;1.00;1.00;;;;;;;;;;6165131;28;20312;-70
2024/01/15 00:48:05;;;;;;;1.10;1.10;;;;;;;;;;6165745;28;20298;-71
2024/01/15 00:51:10;;;;;;;0.90;0.90;;;;;;;;;;6156286;28;20299;-71
2024/01/15 00:54:15;;;;;;;2.33;0.97;;;;;;;;;;6164689;28;20312;-70
2024/01/15 00:57:19;;;;;;;1.10;1.10;;;;;;;;;;6165024;28;20316;-70
2024/01/15 01:00:23;;;;;;;1.00;1.00;;;;;;;;;;6154404;28;20431;-71
2024/01/15 01:03:27;;;;;;;1.00;1.00;;;;;;;;;;6163861;28;20295;-70
2024/01/15 01:06:32;;;;;;;1.00;1.00;;;;;;;;;;6165016;28;20302;-70
2024/01/15 01:09:37;;;;;;;0.97;0.97;;;;;;;;;;6164353;28;20302;-72
2024/01/15 01:12:41;;;;;;;1.10;1.00;;;;;;;;;;6164592;28;20300;-72
2024/01/15 01:15:45;;;;;;;4.80;1.20;;;;;;;;;;6164485;28;20301;-70
2024/01/15 01:18:49;;;;;;;1.80;1.00;;;;;;;;;;6162580;28;20305;-69
2024/01/15 01:21:54;;;;;;;1.60;0.90;;;;;;;;;;6164600;28;20309;-70
2024/01/15 01:24:59;;;;;;;0.80;0.80;;;;;;;;;;6163649;28;20299;-70
2024/01/15 01:28:03;;;;;;;2.53;0.97;;;;;;;;;;6143374;28;20306;-70
2024/01/15 01:31:08;;;;;;;2.17;1.20;;;;;;;;;;6163674;28;20302;-70
2024/01/15 01:34:14;;;;;;;1.17;0.80;;;;;;;;;;6138858;28;20296;-70
2024/01/15 01:37:20;;;;;;;0.90;0.90;;;;;;;;;;6161670;28;20296;-70
2024/01/15 01:40:24;;;;;;;0.90;0.90;;;;;;;;;;6151600;28;20297;-70
2024/01/15 01:43:28;;;;;;;0.83;0.83;;;;;;;;;;6144859;28;20301;-70
2024/01/15 01:46:33;;;;;;;1.73;0.97;;;;;;;;;;6164492;28;20312;-70
2024/01/15 01:49:38;;;;;;;0.90;0.90;;;;;;;;;;6162184;28;20450;-69
2024/01/15 01:52:43;;;;;;;2.23;0.90;;;;;;;;;;6163917;28;20288;-69
2024/01/15 01:55:48;;;;;;;1.33;0.90;;;;;;;;;;6161978;28;20304;-70
2024/01/15 01:58:52;;;;;;;0.97;0.90;;;;;;;;;;6162919;28;20244;-70
2024/01/15 02:01:56;;;;;;;1.00;0.93;;;;;;;;;;6144438;29;20590;-70
2024/01/15 02:05:00;;;;;;;3.10;1.00;;;;;;;;;;6162906;28;20303;-70
2024/01/15 02:08:06;;;;;;;1.00;1.00;;;;;;;;;;6163226;28;20300;-70
2024/01/15 02:11:10;;;;;;;0.97;0.97;;;;;;;;;;6132273;29;20332;-70
2024/01/15 02:14:14;;;;;;;1.90;0.90;;;;;;;;;;6114446;29;20349;-69
2024/01/15 02:17:18;;;;;;;0.90;0.90;;;;;;;;;;6115987;29;20300;-69
2024/01/15 02:20:22;;;;;;;1.40;1.10;;;;;;;;;;6114205;29;20594;-71
2024/01/15 02:23:27;;;;;;;0.93;0.93;;;;;;;;;;6120593;28;20305;-70
2024/01/15 02:26:35;;;;;;;1.00;1.00;;;;;;;;;;6138691;28;20296;-70
2024/01/15 02:29:39;;;;;;;3.30;1.00;;;;;;;;;;6138778;28;20305;-70
2024/01/15 02:32:43;;;;;;;1.07;1.07;;;;;;;;;;6150175;28;20539;-70
2024/01/15 02:35:49;;;;;;;1.00;1.00;;;;;;;;;;6167953;28;20560;-70
2024/01/15 02:38:55;;;;;;;1.00;1.00;;;;;;;;;;6162709;28;20297;-71
2024/01/15 02:41:59;;;;;;;1.30;1.30;;;;;;;;;;6163595;28;20304;-70
2024/01/15 02:45:05;;;;;;;0.90;0.90;;;;;;;;;;6162266;28;20404;-70
2024/01/15 02:48:09;;;;;;;0.97;0.97;;;;;;;;;;6162360;28;20292;-70
2024/01/15 02:51:13;;;;;;;1.03;1.03;;;;;;;;;;6162279;28;20635;-70
2024/01/15 02:54:18;;;;;;;1.10;1.00;;;;;;;;;;6162110;28;20416;-70
2024/01/15 02:57:22;;;;;;;1.10;1.10;;;;;;;;;;6162429;28;20299;-70
2024/01/15 03:00:26;;;;;;;0.93;0.93;;;;;;;;;;6162238;28;20291;-70
2024/01/15 03:03:30;;;;;;;0.97;0.97;;;;;;;;;;6162107;28;20304;-70
2024/01/15 03:06:34;;;;;;;0.93;0.93;;;;;;;;;;6162537;28;20356;-70
2024/01/15 03:09:39;;;;;;;1.00;1.00;;;;;;;;;;6161999;28;20304;-70
2024/01/15 03:12:43;;;;;;;0.80;0.80;;;;;;;;;;6160496;28;20434;-70
2024/01/15 03:15:47;;;;;;;1.10;1.10;;;;;;;;;;6161895;28;20295;-70
2024/01/15 03:18:51;;;;;;;2.00;0.90;;;;;;;;;;6161857;28;20287;-70
2024/01/15 03:21:56;;;;;;;3.83;1.23;;;;;;;;;;6161084;28;20549;-70
2024/01/15 03:25:01;;;;;;;1.00;1.00;;;;;;;;;;6161127;28;20592;-70
2024/01/15 03:28:06;;;;;;;1.90;1.00;;;;;;;;;;6161416;28;20299;-70
2024/01/15 03:31:10;;;;;;;1.70;0.90;;;;;;;;;;6160593;28;20296;-70
2024/01/15 03:34:14;;;;;;;1.13;1.13;;;;;;;;;;6160923;28;20316;-70
2024/01/15 03:37:19;;;;;;;1.10;0.90;;;;;;;;;;6161397;28;20295;-70
2024/01/15 03:40:24;;;;;;;0.97;0.97;;;;;;;;;;6159722;28;20303;-70
2024/01/15 03:43:28;;;;;;;0.90;0.90;;;;;;;;;;6160787;28;20301;-70
2024/01/15 03:46:33;;;;;;;1.77;1.00;;;;;;;;;;6161692;28;20301;-70
2024/01/15 03:49:37;;;;;;;1.57;1.43;;;;;;;;;;6160034;28;20297;-70
2024/01/15 03:52:41;;;;;;;0.93;0.93;;;;;;;;;;6161734;28;20294;-70
2024/01/15 03:55:46;;;;;;;0.93;0.93;;;;;;;;;;6160638;28;20296;-70
2024/01/15 03:58:51;;;;;;;1.10;1.10;;;;;;;;;;6174779;28;20292;-70
2024/01/15 04:01:54;;;;;;;1.43;1.10;;;;;;;;;;6159187;28;20303;-70
2024/01/15 04:04:58;;;;;;;1.10;1.10;;;;;;;;;;6158706;28;20300;-70
2024/01/15 04:08:02;;;;;;;1.20;1.17;;;;;;;;;;6159712;28;20299;-70
2024/01/15 04:11:08;;;;;;;0.90;0.90;;;;;;;;;;6160335;28;20300;-70
2024/01/15 04:14:11;;;;;;;1.10;1.10;;;;;;;;;;6160343;28;20305;-70
2024/01/15 04:17:16;;;;;;;1.17;1.17;;;;;;;;;;6161041;28;20295;-70
2024/01/15 04:20:20;;;;;;;1.10;1.10;;;;;;;;;;6158942;28;20290;-70
2024/01/15 04:23:28;;;;;;;1.13;1.13;;;;;;;;;;6158719;28;20300;-70
2024/01/15 04:26:33;;;;;;;1.40;1.30;;;;;;;;;;6158492;28;20303;-70
2024/01/15 04:29:39;;;;;;;1.30;1.30;;;;;;;;;;6160519;28;20302;-70
2024/01/15 04:32:44;;;;;;;2.23;1.47;;;;;;;;;;6153404;28;20307;-70
2024/01/15 04:35:48;;;;;;;1.37;1.30;;;;;;;;;;6156609;28;20556;-70
2024/01/15 04:38:52;;;;;;;6.43;1.20;;;;;;;;;;6160537;28;20301;-70
2024/01/15 04:41:57;;;;;;;1.27;1.27;;;;;;;;;;6159426;28;20293;-71
2024/01/15 04:45:01;;;;;;;1.20;1.20;;;;;;;;;;6160082;28;20305;-70
2024/01/15 04:48:06;;;;;;;2.43;1.60;;;;;;;;;;6159732;28;20314;-70
2024/01/15 04:51:10;;;;;;;1.23;1.23;;;;;;;;;;6160857;28;20290;-70
2024/01/15 04:54:17;;;;;;;3.20;2.03;;;;;;;;;;6160338;28;20298;-70
2024/01/15 04:57:23;;;;;;;1.80;1.70;;;;;;;;;;6158939;28;20297;-69
2024/01/15 05:00:27;;;;;;;1.50;1.40;;;;;;;;;;6173452;28;20328;-72
2024/01/15 05:03:31;;;;;;;11.10;1.57;;;;;;;;;;6160236;28;20325;-71
2024/01/15 05:06:35;;;;;;;1.40;1.40;;;;;;;;;;6165551;28;20302;-71
2024/01/15 05:09:39;;;;;;;2.20;2.00;;;;;;;;;;6160254;28;20295;-71
2024/01/15 05:12:44;;;;;;;3.53;1.80;;;;;;;;;;6159910;28;20297;-71
2024/01/15 05:15:49;;;;;;;1.40;1.40;;;;;;;;;;6161959;28;20286;-71
2024/01/15 05:18:53;;;;;;;1.47;1.37;;;;;;;;;;6164034;28;20301;-71
2024/01/15 05:21:57;;;;;;;4.47;1.57;;;;;;;;;;6152839;28;20318;-72
2024/01/15 05:25:01;;;;;;;1.80;1.80;;;;;;;;;;6163770;28;20305;-70
2024/01/15 05:28:07;;;;;;;2.17;1.60;;;;;;;;;;6164186;28;20491;-71
2024/01/15 05:31:11;;;;;;;1.47;1.47;;;;;;;;;;6163616;28;20301;-71
2024/01/15 05:34:15;;;;;;;1.60;1.60;;;;;;;;;;6139733;29;20299;-71
2024/01/15 05:37:20;;;;;;;1.80;1.80;;;;;;;;;;6139092;29;20318;-71
2024/01/15 05:40:23;;;;;;;1.97;1.80;;;;;;;;;;6139787;29;20489;-71
2024/01/15 05:43:29;;;;;;;1.50;1.50;;;;;;;;;;6139718;29;20299;-70
2024/01/15 05:46:33;;;;;;;1.77;1.67;;;;;;;;;;6123370;29;20318;-70
2024/01/15 05:49:36;;;;;;;1.60;1.60;;;;;;;;;;6139436;29;20302;-70
2024/01/15 05:52:41;;;;;;;1.63;1.63;;;;;;;;;;6139790;29;20294;-72
2024/01/15 05:55:44;;;;;;;1.70;1.70;;;;;;;;;;6140021;29;20473;-71
2024/01/15 05:58:50;;;;;;;1.63;1.63;;;;;;;;;;6139570;29;20298;-71
2024/01/15 06:01:54;;;;;;;2.07;1.97;;;;;;;;;;6136148;29;20283;-71
2024/01/15 06:04:58;;;;;;;4.23;1.73;;;;;;;;;;6139621;29;20307;-70
2024/01/15 06:08:02;;;;;;;1.93;1.93;;;;;;;;;;6139131;29;20310;-70
2024/01/15 06:11:07;;;;;;;1.87;1.87;;;;;;;;;;6153747;28;20298;-70
2024/01/15 06:14:13;;;;;;;1.80;1.70;;;;;;;;;;6161416;28;20297;-69
2024/01/15 06:17:16;;;;;;;1.83;1.83;;;;;;;;;;6163606;28;20299;-69
2024/01/15 06:20:21;;;;;;;1.80;1.80;;;;;;;;;;6162749;28;20295;-69
2024/01/15 06:23:25;;;;;;;2.00;1.93;;;;;;;;;;6161805;28;20488;-69
2024/01/15 06:26:29;;;;;;;2.30;2.20;;;;;;;;;;6160069;28;20483;-72
2024/01/15 06:29:34;;;;;;;1.90;1.90;;;;;;;;;;6162731;28;20305;-69
2024/01/15 06:32:38;;;;;;;2.10;2.00;;;;;;;;;;6150061;28;20300;-69
2024/01/15 06:35:42;;;;;;;3.53;2.43;;;;;;;;;;6112775;29;20303;-69
2024/01/15 06:38:46;;;;;;;2.97;2.00;;;;;;;;;;6138546;29;20295;-69
2024/01/15 06:41:50;;;;;;;2.10;2.00;;;;;;;;;;6138917;29;20292;-70
2024/01/15 06:44:55;;;;;;;2.47;2.07;;;;;;;;;;6138518;29;20249;-69
2024/01/15 06:47:59;;;;;;;3.80;2.07;;;;;;;;;;6138449;29;20301;-71
2024/01/15 06:51:04;;;;;;;2.90;2.47;;;;;;;;;;6138893;29;20290;-70
2024/01/15 06:54:07;;;;;;;2.30;2.27;;;;;;;;;;6138189;29;20312;-70
2024/01/15 06:57:11;;;;;;;4.23;2.50;;;;;;;;;;6137572;29;20306;-70
2024/01/15 07:00:20;;;;;;;2.33;2.23;;;;;;;;;;6137563;29;20302;-70
2024/01/15 07:03:24;;;;;;;2.60;2.50;;;;;;;;;;6136177;29;20324;-70
2024/01/15 07:06:28;;;;;;;2.40;2.30;;;;;;;;;;6121629;29;20324;-70
2024/01/15 07:09:33;;;;;;;2.30;2.20;;;;;;;;;;6139461;29;20599;-71
2024/01/15 07:12:37;;;;;;;2.90;2.70;;;;;;;;;;6161912;28;20461;-71
2024/01/15 07:15:42;;;;;;;2.53;2.43;;;;;;;;;;6162405;28;20583;-70
2024/01/15 07:18:46;;;;;;;2.60;2.40;;;;;;;;;;6161129;28;20292;-70
2024/01/15 07:21:50;;;;;;;3.03;2.30;;;;;;;;;;6161628;28;20311;-69
2024/01/15 07:24:59;;;;;;;3.50;2.17;;;;;;;;;;6153107;28;20297;-70
2024/01/15 07:28:03;;;;;;;2.53;2.50;;;;;;;;;;6143200;28;20319;-70
2024/01/15 07:31:09;;;;;;;1.97;1.97;;;;;;;;;;6158014;28;20303;-69
2024/01/15 07:34:13;;;;;;;2.00;1.90;;;;;;;;;;6137533;29;20556;-69
2024/01/15 07:37:18;;;;;;;2.00;1.90;;;;;;;;;;6137586;29;20307;-70
2024/01/15 07:40:21;;;;;;;2.00;2.00;;;;;;;;;;6136076;29;20306;-71
2024/01/15 07:43:27;;;;;;;1.90;1.83;;;;;;;;;;6119812;29;20585;-70
2024/01/15 07:46:33;;;;;;;1.73;1.63;;;;;;;;;;6137520;29;20296;-69
2024/01/15 07:49:37;;;;;;;2.00;1.90;;;;;;;;;;6137456;29;20342;-68
2024/01/15 07:52:42;;;;;;;1.63;1.60;;;;;;;;;;6136945;29;20301;-70
2024/01/15 07:55:46;;;;;;;1.80;1.60;;;;;;;;;;6137299;29;20297;-73
2024/01/15 07:58:50;;;;;;;2.10;1.37;;;;;;;;;;6137252;29;20315;-70
2024/01/15 08:01:55;;;;;;;1.70;1.50;;;;;;;;;;6137634;29;20303;-71
2024/01/15 08:04:59;;;;;;;2.13;1.23;;;;;;;;;;6136505;29;20320;-70
2024/01/15 08:08:03;;;;;;;1.30;1.30;;;;;;;;;;6137096;29;20307;-70
2024/01/15 08:11:08;;;;;;;2.27;1.20;;;;;;;;;;6151595;28;20314;-70
2024/01/15 08:14:13;;;;;;;1.37;1.20;;;;;;;;;;6160384;28;20294;-70
2024/01/15 08:17:18;;;;;;;1.27;1.13;;;;;;;;;;6161391;28;20589;-69
2024/01/15 08:20:22;;;;;;;1.20;1.20;;;;;;;;;;6160434;28;20307;-71
2024/01/15 08:23:28;;;;;;;1.10;1.10;;;;;;;;;;6160211;28;20314;-70
2024/01/15 08:26:32;;;;;;;4.13;1.43;;;;;;;;;;6161140;28;20593;-71
2024/01/15 08:29:36;;;;;;;1.90;1.20;;;;;;;;;;6160009;28;20471;-70
2024/01/15 08:32:42;;;;;;;0.90;0.90;;;;;;;;;;6122798;29;20302;-70
2024/01/15 08:35:46;;;;;;;1.90;1.10;;;;;;;;;;6136530;29;20298;-70
2024/01/15 08:38:50;;;;;;;1.20;1.20;;;;;;;;;;6134754;29;20359;-69
2024/01/15 08:41:54;;;;;;;2.93;1.33;;;;;;;;;;6136719;29;20315;-69
2024/01/15 08:44:58;;;;;;;0.97;0.97;;;;;;;;;;6136085;29;20567;-69
2024/01/15 08:48:04;;;;;;;1.10;1.10;;;;;;;;;;6136201;29;20305;-71
2024/01/15 08:51:08;;;;;;;0.80;0.80;;;;;;;;;;6140574;29;20290;-70
2024/01/15 08:54:12;;;;;;;1.00;1.00;;;;;;;;;;6140985;29;20296;-70
2024/01/15 08:57:16;;;;;;;1.30;1.20;;;;;;;;;;6141155;29;20306;-70
2024/01/15 09:00:20;;;;;;;1.07;1.07;;;;;;;;;;6140350;29;20310;-70
2024/01/15 09:03:26;;;;;;;2.37;1.20;;;;;;;;;;6140581;29;20582;-70
2024/01/15 09:06:30;;;;;;;1.10;1.10;;;;;;;;;;6140697;29;20388;-70
2024/01/15 09:09:35;;;;;;;2.30;1.10;;;;;;;;;;6142268;29;20323;-71
2024/01/15 09:12:40;;;;;;;1.50;1.07;;;;;;;;;;6162311;28;20299;-70
2024/01/15 09:15:44;;;;;;;1.30;1.30;;;;;;;;;;6164721;28;20603;-70
2024/01/15 09:18:49;;;;;;;1.00;1.00;;;;;;;;;;6164209;28;20493;-70
2024/01/15 09:21:53;;;;;;;1.00;1.00;;;;;;;;;;6163515;28;20298;-70
2024/01/15 09:24:57;;;;;;;1.83;1.10;;;;;;;;;;6162581;28;20299;-70
2024/01/15 09:28:02;;;;;;;2.00;1.00;;;;;;;;;;6164024;28;20296;-70
2024/01/15 09:31:06;;;;;;;0.87;0.87;;;;;;;;;;6164420;28;20294;-70
2024/01/15 09:34:11;;;;;;;1.00;1.00;;;;;;;;;;6141234;29;20292;-70
2024/01/15 09:37:16;;;;;;;1.00;1.00;;;;;;;;;;6138820;29;20306;-71
2024/01/15 09:40:39;;;;;;;0.93;0.93;;;;;;;;;;6140199;29;20309;-70
2024/01/15 09:43:44;;;;;;;1.03;1.03;;;;;;;;;;6139842;29;20296;-70
2024/01/15 09:46:50;;;;;;;1.10;1.10;;;;;;;;;;6139472;29;20493;-69
2024/01/15 09:49:57;;;;;;;3.77;1.10;;;;;;;;;;6139593;29;20300;-70
2024/01/15 09:53:02;;;;;;;1.77;1.23;;;;;;;;;;6137754;29;20306;-71
2024/01/15 09:56:07;;;;;;;1.20;1.20;;;;;;;;;;6122905;29;20302;-71
2024/01/15 09:59:11;;;;;;;1.20;1.20;;;;;;;;;;6139413;29;20300;-71
2024/01/15 10:02:18;;;;;;;1.00;1.00;;;;;;;;;;6138720;29;20299;-71
2024/01/15 10:05:23;;;;;;;2.63;1.17;;;;;;;;;;6139172;29;20465;-71
2024/01/15 10:08:27;;;;;;;1.47;1.00;;;;;;;;;;6139018;29;20302;-68
2024/01/15 10:11:31;;;;;;;2.87;1.10;;;;;;;;;;6130408;28;20601;-69
2024/01/15 10:14:36;;;;;;;2.33;1.60;;;;;;;;;;6163307;28;20370;-69
2024/01/15 10:17:40;;;;;;;1.30;1.10;;;;;;;;;;6163225;28;20310;-69
2024/01/15 10:20:46;;;;;;;1.23;1.00;;;;;;;;;;6164136;28;20297;-69
2024/01/15 10:23:50;;;;;;;0.90;0.90;;;;;;;;;;6145657;28;20551;-70
2024/01/15 10:27:06;;;;;;;2.47;1.37;;;;;;;;;;6163508;28;20302;-69
2024/01/15 10:30:13;;;;;;;1.07;1.07;;;;;;;;;;6163159;28;20326;-72
2024/01/15 10:33:25;;;;;;;1.83;1.00;;;;;;;;;;6162389;28;20306;-69
2024/01/15 10:36:31;;;;;;;1.57;1.10;;;;;;;;;;6162743;28;20307;-70
2024/01/15 10:39:36;;;;;;;1.00;1.00;;;;;;;;;;6162943;28;20586;-72
2024/01/15 10:42:41;;;;;;;0.90;0.90;;;;;;;;;;6163369;28;20427;-72
2024/01/15 10:45:45;;;;;;;2.43;1.37;;;;;;;;;;6163315;28;20287;-73
2024/01/15 10:48:49;;;;;;;1.10;1.10;;;;;;;;;;6162589;28;20295;-71
2024/01/15 10:51:55;;;;;;;1.70;1.37;;;;;;;;;;6162832;28;20287;-72
2024/01/15 10:55:00;;;;;;;1.00;1.00;;;;;;;;;;6163017;28;20283;-71
2024/01/15 10:58:12;;;;;;;3.00;1.10;;;;;;;;;;6162511;28;20379;-71
2024/01/15 11:01:17;;;;;;;1.23;1.20;;;;;;;;;;6177699;28;20302;-72
2024/01/15 11:04:21;;;;;;;3.10;1.20;;;;;;;;;;6148461;28;20560;-71
2024/01/15 11:07:27;;;;;;;2.00;1.40;;;;;;;;;;6168838;28;20299;-71
2024/01/15 11:10:46;;;;;;;1.30;1.20;;;;;;;;;;6161651;28;20439;-72
2024/01/15 11:13:52;;;;;;;1.17;1.17;;;;;;;;;;6162206;28;20603;-70
2024/01/15 11:16:59;;;;;;;1.10;1.10;;;;;;;;;;6162494;28;20296;-70
2024/01/15 11:20:07;;;;;;;1.27;1.17;;;;;;;;;;6161484;28;20475;-70
2024/01/15 11:23:46;;;;;;;2.97;1.00;;;;;;;;;;6161900;28;20315;-71
2024/01/15 11:26:54;;;;;;;1.93;1.23;;;;;;;;;;6161842;28;20295;-69
2024/01/15 11:30:05;;;;;;;1.00;1.00;;;;;;;;;;6161751;28;20291;-70
2024/01/15 11:33:35;;;;;;;1.00;1.00;;;;;;;;;;6146487;28;20581;-71
2024/01/15 11:37:03;;;;;;;1.20;1.20;;;;;;;;;;6121754;29;20299;-71
2024/01/15 11:40:11;;;;;;;1.10;1.10;;;;;;;;;;6135151;29;20304;-71
2024/01/15 11:43:20;;;;;;;1.13;1.10;;;;;;;;;;6134923;29;20585;-70
2024/01/15 11:46:26;;;;;;;0.90;0.90;;;;;;;;;;6137728;29;20381;-70
2024/01/15 11:49:48;;;;;;;1.00;1.00;;;;;;;;;;6094587;29;20302;-72
2024/01/15 11:52:58;;;;;;;2.20;1.10;;;;;;;;;;6137094;29;20290;-73
2024/01/15 11:56:13;;;;;;;2.73;1.53;;;;;;;;;;6135911;29;20295;-71
2024/01/15 11:59:17;;;;;;;0.90;0.90;;;;;;;;;;6137096;29;20302;-74
2024/01/15 12:02:21;;;;;;;1.03;1.03;;;;;;;;;;6136784;29;20304;-72
2024/01/15 12:05:25;;;;;;;1.90;1.07;;;;;;;;;;6136948;29;20302;-71
2024/01/15 12:08:29;;;;;;;1.00;1.00;;;;;;;;;;6136380;29;20291;-70
2024/01/15 12:11:37;;;;;;;1.17;1.17;;;;;;;;;;6154559;28;20289;-68
2024/01/15 12:14:41;;;;;;;1.20;1.20;;;;;;;;;;6143250;28;20294;-69
2024/01/15 12:17:47;;;;;;;1.87;0.90;;;;;;;;;;6161287;28;20383;-70
2024/01/15 12:20:52;;;;;;;0.97;0.97;;;;;;;;;;6159403;28;20305;-69
2024/01/15 12:23:57;;;;;;;1.10;1.10;;;;;;;;;;6159303;28;20297;-74
2024/01/15 12:27:02;;;;;;;2.37;1.00;;;;;;;;;;6160991;28;20394;-70
2024/01/15 12:30:08;;;;;;;1.20;1.20;;;;;;;;;;6159935;28;20602;-71
2024/01/15 12:33:12;;;;;;;1.73;1.10;;;;;;;;;;6127888;29;20610;-69
2024/01/15 12:36:22;;;;;;;1.00;1.00;;;;;;;;;;6136646;29;20302;-69
2024/01/15 12:39:26;;;;;;;1.10;1.10;;;;;;;;;;6126751;29;20480;-68
2024/01/15 12:42:31;;;;;;;1.20;1.00;;;;;;;;;;6136399;29;20299;-68
2024/01/15 12:45:37;;;;;;;2.20;1.10;;;;;;;;;;6136565;29;20303;-70
2024/01/15 12:48:41;;;;;;;3.10;1.00;;;;;;;;;;6136776;29;20298;-69
2024/01/15 12:51:53;;;;;;;1.03;1.03;;;;;;;;;;6136848;29;20299;-69
2024/01/15 12:54:57;;;;;;;2.87;1.10;;;;;;;;;;6136334;29;20297;-69
2024/01/15 12:58:03;;;;;;;1.23;0.90;;;;;;;;;;6136382;29;20306;-69
2024/01/15 13:01:07;;;;;;;1.40;1.40;;;;;;;;;;6136756;29;20303;-69
2024/01/15 13:04:12;;;;;;;1.00;1.00;;;;;;;;;;6136127;29;20294;-69
2024/01/15 13:07:16;;;;;;;1.00;1.00;;;;;;;;;;6136648;29;20303;-69
2024/01/15 13:10:20;;;;;;;1.00;1.00;;;;;;;;;;6144317;29;20592;-71
2024/01/15 13:13:30;;;;;;;1.50;1.27;;;;;;;;;;6158756;28;20303;-69
2024/01/15 13:16:34;;;;;;;1.50;1.00;;;;;;;;;;6160016;28;20338;-71
2024/01/15 13:19:38;;;;;;;2.30;1.13;;;;;;;;;;6158538;28;20302;-69
2024/01/15 13:22:44;;;;;;;1.50;1.00;;;;;;;;;;6158693;28;20287;-70
2024/01/15 13:25:48;;;;;;;0.90;0.90;;;;;;;;;;6136410;29;20296;-70
2024/01/15 13:28:54;;;;;;;1.17;1.10;;;;;;;;;;6135107;29;20311;-70
2024/01/15 13:31:59;;;;;;;1.00;1.00;;;;;;;;;;6135498;29;20306;-70
2024/01/15 13:35:05;;;;;;;1.23;1.10;;;;;;;;;;6135681;28;20304;-71
2024/01/15 13:38:11;;;;;;;1.00;1.00;;;;;;;;;;6140373;28;20576;-71
2024/01/15 13:41:18;;;;;;;1.07;1.07;;;;;;;;;;6139401;29;20299;-71
2024/01/15 13:44:28;;;;;;;1.40;1.40;;;;;;;;;;6111662;29;20387;-71
2024/01/15 13:47:32;;;;;;;2.20;1.23;;;;;;;;;;6140342;28;20296;-71
2024/01/15 13:50:36;;;;;;;2.63;0.93;;;;;;;;;;6139845;29;20295;-71
2024/01/15 13:53:40;;;;;;;1.30;1.20;;;;;;;;;;6139504;28;20343;-72
2024/01/15 13:56:47;;;;;;;1.10;1.10;;;;;;;;;;6140323;28;20296;-71
2024/01/15 13:59:52;;;;;;;1.10;1.10;;;;;;;;;;6113730;29;20579;-70
2024/01/15 14:02:56;;;;;;;2.63;1.23;;;;;;;;;;6121751;29;20815;-71
2024/01/15 14:06:02;;;;;;;2.33;1.20;;;;;;;;;;6139994;29;20306;-71
2024/01/15 14:09:09;;;;;;;1.30;1.30;;;;;;;;;;6138143;29;20562;-71
2024/01/15 14:12:13;;;;;;;1.27;1.27;;;;;;;;;;6139540;29;20306;-72
2024/01/15 14:15:21;;;;;;;2.67;1.10;;;;;;;;;;6138988;29;20604;-71
2024/01/15 14:18:25;;;;;;;1.20;1.20;;;;;;;;;;6138962;29;20302;-71
2024/01/15 14:21:29;;;;;;;2.67;1.20;;;;;;;;;;6139132;28;20295;-71
2024/01/15 14:24:33;;;;;;;1.30;1.30;;;;;;;;;;6138982;29;20302;-71
2024/01/15 14:27:37;;;;;;;3.17;1.30;;;;;;;;;;6137738;28;20301;-71
2024/01/15 14:30:42;;;;;;;1.10;1.10;;;;;;;;;;6139611;29;20300;-73
2024/01/15 14:33:46;;;;;;;1.00;1.00;;;;;;;;;;6138947;28;20298;-70
2024/01/15 14:36:53;;;;;;;1.20;1.20;;;;;;;;;;6139202;28;20303;-69
2024/01/15 14:39:57;;;;;;;1.27;1.20;;;;;;;;;;6139080;29;20307;-69
2024/01/15 14:43:03;;;;;;;1.20;1.20;;;;;;;;;;6138690;29;20298;-69
2024/01/15 14:46:08;;;;;;;3.00;1.20;;;;;;;;;;6139307;29;20499;-69
2024/01/15 14:49:12;;;;;;;1.37;1.37;;;;;;;;;;6137267;29;20395;-69
2024/01/15 14:52:16;;;;;;;1.70;1.40;;;;;;;;;;6138237;29;20306;-71
2024/01/15 14:55:20;;;;;;;5.17;1.30;;;;;;;;;;6138694;29;20306;-69
2024/01/15 14:58:24;;;;;;;1.30;1.30;;;;;;;;;;6137328;29;20407;-69
2024/01/15 15:01:29;;;;;;;2.23;1.20;;;;;;;;;;6139115;28;20597;-68
2024/01/15 15:04:35;;;;;;;2.47;1.30;;;;;;;;;;6139325;29;20461;-69
2024/01/15 15:07:39;;;;;;;1.27;1.17;;;;;;;;;;6137931;28;20293;-70
2024/01/15 15:10:43;;;;;;;1.03;1.03;;;;;;;;;;6138625;29;20310;-71
2024/01/15 15:13:47;;;;;;;2.00;1.00;;;;;;;;;;6120402;29;20303;-70
2024/01/15 15:16:52;;;;;;;1.13;1.13;;;;;;;;;;6138079;29;20292;-70
2024/01/15 15:19:56;;;;;;;1.50;1.40;;;;;;;;;;6138314;28;20635;-71
2024/01/15 15:23:01;;;;;;;1.00;1.00;;;;;;;;;;6138948;28;20500;-70
2024/01/15 15:26:05;;;;;;;1.23;1.13;;;;;;;;;;6161282;28;20304;-70
2024/01/15 15:29:09;;;;;;;1.80;1.13;;;;;;;;;;6161453;28;20302;-69
2024/01/15 15:32:15;;;;;;;1.00;1.00;;;;;;;;;;6161805;28;20397;-70
2024/01/15 15:35:19;;;;;;;1.03;1.03;;;;;;;;;;6159401;28;20301;-70
2024/01/15 15:38:23;;;;;;;1.13;1.10;;;;;;;;;;6159847;28;20301;-70
2024/01/15 15:41:27;;;;;;;1.20;1.20;;;;;;;;;;6161384;28;20558;-69
2024/01/15 15:44:31;;;;;;;1.20;1.20;;;;;;;;;;6160818;28;20301;-71
2024/01/15 15:47:37;;;;;;;2.20;1.60;;;;;;;;;;6158967;28;20559;-71
2024/01/15 15:50:41;;;;;;;1.47;1.37;;;;;;;;;;6160788;28;20293;-70
2024/01/15 15:53:45;;;;;;;1.23;1.23;;;;;;;;;;6160631;28;20334;-71
2024/01/15 15:56:50;;;;;;;1.47;1.33;;;;;;;;;;6158783;28;20397;-71
2024/01/15 15:59:57;;;;;;;1.40;1.30;;;;;;;;;;6159649;28;20337;-72
2024/01/15 16:03:02;;;;;;;1.10;1.10;;;;;;;;;;6159587;28;20301;-71
2024/01/15 16:06:06;;;;;;;1.30;1.20;;;;;;;;;;6160996;28;20294;-70
2024/01/15 16:09:11;;;;;;;1.50;1.40;;;;;;;;;;6160537;28;20613;-71
2024/01/15 16:12:15;;;;;;;3.70;1.33;;;;;;;;;;6160901;28;20584;-70
2024/01/15 16:15:20;;;;;;;1.10;1.10;;;;;;;;;;6160547;28;20290;-70
2024/01/15 16:18:26;;;;;;;3.60;1.00;;;;;;;;;;6160259;28;20488;-72
2024/01/15 16:21:50;;;;;;;1.37;1.27;;;;;;;;;;6158923;28;20346;-70
2024/01/15 16:25:14;;;;;;;1.13;1.10;;;;;;;;;;6159847;28;20310;-71
2024/01/15 16:28:19;;;;;;;1.27;1.27;;;;;;;;;;6160228;28;20291;-71
2024/01/15 16:31:23;;;;;;;4.63;1.40;;;;;;;;;;6149769;28;20302;-70
2024/01/15 16:34:28;;;;;;;1.63;1.20;;;;;;;;;;6159470;28;20294;-72
2024/01/15 16:37:32;;;;;;;1.40;1.40;;;;;;;;;;6156698;28;20539;-71
2024/01/15 16:40:36;;;;;;;1.30;1.30;;;;;;;;;;6167992;28;20314;-72
2024/01/15 16:43:42;;;;;;;1.00;1.00;;;;;;;;;;6160160;28;20294;-72
2024/01/15 16:46:46;;;;;;;4.00;1.30;;;;;;;;;;6161286;28;20259;-71
2024/01/15 16:49:53;;;;;;;1.00;1.00;;;;;;;;;;6160351;28;20309;-71
2024/01/15 16:52:57;;;;;;;1.10;1.10;;;;;;;;;;6158946;28;20299;-70
2024/01/15 16:56:01;;;;;;;1.20;1.20;;;;;;;;;;6161938;28;20299;-70
2024/01/15 16:59:05;;;;;;;1.13;1.10;;;;;;;;;;6158736;28;20299;-71
2024/01/15 17:02:10;;;;;;;1.03;1.03;;;;;;;;;;6161408;28;20368;-69
2024/01/15 17:05:16;;;;;;;5.93;2.77;;;;;;;;;;6165972;28;20304;-69
2024/01/15 17:08:20;;;;;;;1.00;1.00;;;;;;;;;;6158965;28;20377;-69
2024/01/15 17:11:24;;;;;;;1.07;1.07;;;;;;;;;;6163018;28;20604;-70
2024/01/15 17:14:28;;;;;;;2.10;1.40;;;;;;;;;;6164891;28;20299;-69
2024/01/15 17:17:33;;;;;;;1.10;1.10;;;;;;;;;;6165074;28;20326;-70
2024/01/15 17:20:41;;;;;;;1.93;1.30;;;;;;;;;;6164573;28;20299;-69
2024/01/15 17:23:46;;;;;;;1.07;1.07;;;;;;;;;;6150339;28;20315;-71
2024/01/15 17:26:51;;;;;;;1.73;1.23;;;;;;;;;;6163636;28;20302;-71
2024/01/15 17:29:55;;;;;;;3.17;1.30;;;;;;;;;;6156301;28;20382;-72
2024/01/15 17:32:59;;;;;;;2.33;1.20;;;;;;;;;;6163583;28;20485;-70
2024/01/15 17:36:06;;;;;;;4.50;1.37;;;;;;;;;;6155385;28;20578;-72
2024/01/15 17:39:10;;;;;;;1.20;1.00;;;;;;;;;;6162163;28;20302;-72
2024/01/15 17:42:14;;;;;;;2.03;1.13;;;;;;;;;;6163654;28;20307;-70
2024/01/15 17:45:18;;;;;;;1.20;1.20;;;;;;;;;;6141295;28;20385;-70
2024/01/15 17:48:23;;;;;;;1.50;1.50;;;;;;;;;;6138476;28;20306;-70
2024/01/15 17:51:28;;;;;;;1.10;1.10;;;;;;;;;;6140646;28;20305;-71
2024/01/15 17:54:32;;;;;;;1.00;1.00;;;;;;;;;;6139555;28;20323;-70
2024/01/15 17:57:36;;;;;;;3.93;1.13;;;;;;;;;;6139981;28;20306;-71
2024/01/15 18:00:40;;;;;;;1.27;1.20;;;;;;;;;;6142098;28;20297;-71
2024/01/15 18:03:44;;;;;;;1.37;1.37;;;;;;;;;;6139940;28;20293;-70
2024/01/15 18:06:50;;;;;;;2.23;1.63;;;;;;;;;;6145065;28;20292;-71
2024/01/15 18:09:55;;;;;;;1.40;1.30;;;;;;;;;;6153321;28;20289;-72
2024/01/15 18:12:59;;;;;;;1.90;1.83;;;;;;;;;;6159305;28;20297;-71
2024/01/15 18:16:03;;;;;;;2.73;1.50;;;;;;;;;;6162771;28;20311;-71
2024/01/15 18:19:07;;;;;;;2.13;1.90;;;;;;;;;;6161812;28;20298;-72
2024/01/15 18:22:13;;;;;;;1.40;1.40;;;;;;;;;;6144975;28;20302;-71
2024/01/15 18:25:17;;;;;;;1.90;1.80;;;;;;;;;;6135752;29;20488;-72
2024/01/15 18:28:20;;;;;;;1.50;1.50;;;;;;;;;;6138740;28;20305;-69
2024/01/15 18:31:25;;;;;;;1.47;1.47;;;;;;;;;;6139870;28;20303;-71